Terminal Aerodrome Forecast
Issued by NWS

Home | Current Version | Previous Version | Text Only | Print | Product List | Glossary On
Versions: 1 2 3 4 5 6 7 8 9 10 11 12 13 14
656
FTUS44 KTSA 160537
TAFMLC
TAF
KMLC 160537Z 1606/1706 20005KT P6SM SKC
     FM161600 19011G18KT P6SM SCT250
     FM161900 19014G23KT P6SM SCT150
     FM170000 17012KT P6SM BKN040
     FM170200 17010KT 5SM BR VCSH BKN025 OVC040
     FM170400 18009KT 5SM -SHRA BR OVC025=

USA.gov is the U.S. government's official web portal to all federal, state and local government web resources and services.